SBOSBO DEN / KDEN
Speedbird OnlineSpeedbird Online DEN / KDEN

Denver International Airport
01:11 9.8°C

Location Denver, United States
Latitude: 39.861698150635
Longitude: -104.672996521
Web Airport Website | Wikipedia
Altitude 1655 Meter / 5431 Feet
Distance 7,527 KM / 4,677 Miles
from London.
Time Zone UTC -6 hours (America/Denver)
Codes IATA: DEN
ICAO: KDEN
Currency £1 equals USD 1.13
Runways
RunwayLength (m)Surface
073658Concrete
083658Concrete
16L3658Concrete
16R4877Concrete
17L3658Concrete
17R3658Concrete
253658Concrete
263658Concrete
34L4877Concrete
34R3658Concrete
35L3658Concrete
35R3658Concrete
Radio
TypeDescriptionFrequency
APPAPP119.3
ATISATIS125.6
CLDCLNC DEL118.75
DEPDEP126.1
GNDGND121.85
RDORDO123.65
TWRTWR124.3
UNICUNICOM122.95
Live ATC
METAR KDEN 060653Z 20007KT 10SM FEW120 10/03 A3036 RMK AO2 SLP236 T01000033 402060083
TAF KDEN 060526Z 0606/0712 16007KT P6SM FEW120 FM060700 21010KT P6SM SKC FM061400 25006KT P6SM SCT200 FM061900 10008KT P6SM BKN200 FM070200 11012KT P6SM SCT040 BKN200 FM070700 06012KT P6SM SCT040 BKN150 TEMPO 0710/0712 BKN020
Weather As Of 06 Oct 2022 01:11
Description Few clouds
Wind 13 km/h from South (200°)
Cloud Cover 20%
Precipitation Rain: none, Snow: none
Sunrise 06:59
Sunset 18:33
Lounges American Airlines Admirals Club, Jeppesen Terminal
Rotations During the last 90 days there were
16 flights from LHR
82 flights to LHR


© 2017-2022 Speedbird Online